Time;durP1;ratioP1;P1;durP2;ratioP2;P2;SDS_P1;SDS_P2;PMS_P1;PMS_P2;Temp;Humidity;BMP_temperature;BMP_pressure;BME280_temperature;BME280_humidity;BME280_pressure;Samples;Min_cycle;Max_cycle;Signal;HPM_P1;HPM_P2
2022/08/04 00:00:44;;;;;;;;;9.75;7.50;;;29.49;97843.59;;;;119446;1186;25356;-67
2022/08/04 00:03:23;;;;;;;;;6.50;6.25;;;29.50;97840.02;;;;119435;1186;24993;-70
2022/08/04 00:06:20;;;;;;;;;10.25;9.00;;;29.47;97841.23;;;;119317;1187;24978;-67
2022/08/04 00:08:59;;;;;;;;;8.00;8.00;;;29.51;97843.17;;;;119432;1186;25657;-67
2022/08/04 00:11:29;;;;;;;;;7.00;7.00;;;29.51;97843.80;;;;119445;1186;25720;-67
2022/08/04 00:14:05;;;;;;;;;6.75;6.75;;;29.46;97841.17;;;;119462;1186;24896;-67
2022/08/04 00:16:36;;;;;;;;;9.25;6.25;;;29.45;97840.63;;;;119437;1187;26318;-67
2022/08/04 00:19:17;;;;;;;;;5.25;5.25;;;29.43;97842.05;;;;119428;1186;25026;-67
2022/08/04 00:21:53;;;;;;;;;6.00;6.00;;;29.43;97839.93;;;;119425;1186;25100;-67
2022/08/04 00:24:22;;;;;;;;;10.50;8.50;;;29.41;97841.05;;;;119455;1187;25253;-67
2022/08/04 00:26:52;;;;;;;;;6.50;6.50;;;29.39;97841.18;;;;119412;1186;25651;-67
2022/08/04 00:29:21;;;;;;;;;5.00;5.00;;;29.38;97839.27;;;;119454;1187;26795;-67
2022/08/04 00:31:49;;;;;;;;;10.75;9.25;;;29.38;97841.10;;;;119478;1186;25648;-66
2022/08/04 00:34:26;;;;;;;;;7.50;7.50;;;29.38;97842.66;;;;119436;1186;25095;-67
2022/08/04 00:36:55;;;;;;;;;9.75;8.75;;;29.38;97844.98;;;;119432;1185;25376;-67
2022/08/04 00:39:23;;;;;;;;;7.25;6.75;;;29.37;97845.61;;;;119484;1186;25577;-67
2022/08/04 00:42:02;;;;;;;;;5.75;5.75;;;29.37;97847.42;;;;119470;1186;25114;-67
2022/08/04 00:44:50;;;;;;;;;9.75;8.75;;;29.39;97847.36;;;;119461;1187;25463;-67
2022/08/04 00:47:34;;;;;;;;;4.25;3.50;;;29.47;97845.60;;;;119436;1186;24875;-67
2022/08/04 00:50:08;;;;;;;;;8.75;7.00;;;29.51;97842.77;;;;119439;1187;24962;-66
2022/08/04 00:52:55;;;;;;;;;5.00;4.00;;;29.47;97844.64;;;;119452;1187;25273;-67
2022/08/04 00:55:32;;;;;;;;;10.50;8.25;;;29.45;97843.77;;;;119443;1186;25617;-68
2022/08/04 00:58:24;;;;;;;;;6.25;6.25;;;29.41;97844.62;;;;119435;1186;25773;-67
2022/08/04 01:01:01;;;;;;;;;9.50;7.75;;;29.41;97844.29;;;;119453;1186;25126;-69
2022/08/04 01:03:41;;;;;;;;;11.50;8.50;;;29.38;97845.30;;;;119464;1187;25389;-67
2022/08/04 01:06:11;;;;;;;;;9.75;8.00;;;29.36;97849.10;;;;119455;1187;25421;-68
2022/08/04 01:09:12;;;;;;;;;10.25;7.75;;;29.32;97853.41;;;;119477;1186;25626;-67
2022/08/04 01:11:57;;;;;;;;;7.75;7.25;;;29.36;97851.41;;;;119449;1186;25801;-67
2022/08/04 01:14:28;;;;;;;;;9.50;8.00;;;29.37;97852.86;;;;119447;1186;25732;-67
2022/08/04 01:17:25;;;;;;;;;8.50;8.50;;;29.35;97852.31;;;;119469;1187;25447;-67
2022/08/04 01:20:08;;;;;;;;;6.75;6.75;;;29.41;97854.94;;;;119387;1187;27062;-67
2022/08/04 01:23:13;;;;;;;;;11.50;9.00;;;29.39;97853.00;;;;119468;1186;26111;-65
2022/08/04 01:26:18;;;;;;;;;9.50;9.00;;;29.36;97851.73;;;;119438;1186;25169;-67
2022/08/04 01:29:11;;;;;;;;;8.50;7.00;;;29.49;97854.10;;;;119065;1190;25265;-68
2022/08/04 01:31:45;;;;;;;;;9.00;7.00;;;29.48;97855.48;;;;119463;1186;24805;-68
2022/08/04 01:34:15;;;;;;;;;8.50;6.25;;;29.39;97855.77;;;;119440;1186;25397;-67
2022/08/04 01:36:56;;;;;;;;;5.75;5.75;;;29.34;97855.45;;;;119474;1187;24976;-67
2022/08/04 01:39:42;;;;;;;;;6.75;6.75;;;29.35;97850.73;;;;119458;1186;25060;-67
2022/08/04 01:42:10;;;;;;;;;7.00;7.00;;;29.38;97848.25;;;;119464;1186;25656;-67
2022/08/04 01:44:47;;;;;;;;;8.75;8.00;;;29.36;97848.90;;;;119459;1186;25938;-67
2022/08/04 01:47:17;;;;;;;;;7.67;7.67;;;29.32;97848.70;;;;119446;1187;25712;-68
2022/08/04 01:49:50;;;;;;;;;7.50;7.50;;;29.31;97850.13;;;;119430;1187;25038;-68
2022/08/04 01:52:18;;;;;;;;;11.25;9.25;;;29.31;97846.13;;;;119441;1186;25471;-67
2022/08/04 01:54:47;;;;;;;;;8.00;7.25;;;29.28;97846.91;;;;119475;1186;25213;-66
2022/08/04 01:57:17;;;;;;;;;8.00;8.00;;;29.27;97848.38;;;;119433;1186;25893;-66
2022/08/04 02:00:05;;;;;;;;;7.00;7.00;;;29.34;97850.23;;;;119440;1187;25212;-67
2022/08/04 02:02:33;;;;;;;;;7.75;6.75;;;29.32;97849.02;;;;119438;1187;24670;-66
2022/08/04 02:05:02;;;;;;;;;9.25;6.00;;;29.29;97847.28;;;;119425;1185;25296;-67
2022/08/04 02:07:54;;;;;;;;;8.75;7.50;;;29.24;97841.87;;;;119430;1186;25611;-67
2022/08/04 02:10:42;;;;;;;;;7.25;7.25;;;29.24;97841.55;;;;119419;1186;25528;-67
2022/08/04 02:13:27;;;;;;;;;8.00;7.25;;;29.21;97838.94;;;;119447;1186;25459;-67
2022/08/04 02:16:01;;;;;;;;;6.50;5.75;;;29.20;97837.40;;;;119442;1187;24930;-67
2022/08/04 02:18:33;;;;;;;;;7.50;7.50;;;29.21;97838.69;;;;119461;1184;25440;-67
2022/08/04 02:21:01;;;;;;;;;5.50;5.00;;;29.20;97837.96;;;;119448;1187;25600;-66
2022/08/04 02:23:29;;;;;;;;;6.25;6.00;;;29.18;97841.04;;;;119445;1186;25582;-66
2022/08/04 02:26:00;;;;;;;;;9.25;8.00;;;29.17;97840.80;;;;119462;1187;25006;-66
2022/08/04 02:28:37;;;;;;;;;5.50;5.00;;;29.17;97839.52;;;;119459;1187;24889;-67
2022/08/04 02:31:23;;;;;;;;;7.00;7.00;;;29.18;97837.11;;;;119465;1186;24783;-66
2022/08/04 02:34:04;;;;;;;;;8.25;8.00;;;29.18;97838.98;;;;119437;1186;25585;-67
2022/08/04 02:36:37;;;;;;;;;7.33;7.00;;;29.16;97838.87;;;;119465;1187;25606;-67
2022/08/04 02:39:10;;;;;;;;;5.75;5.75;;;29.16;97841.04;;;;119466;1186;25635;-67
2022/08/04 02:41:39;;;;;;;;;7.25;6.25;;;29.14;97838.31;;;;119446;1186;25082;-67
2022/08/04 02:44:09;;;;;;;;;8.50;8.00;;;29.14;97836.85;;;;119456;1187;25143;-68
2022/08/04 02:46:37;;;;;;;;;9.25;9.25;;;29.12;97835.57;;;;119455;1187;25023;-67
2022/08/04 02:49:08;;;;;;;;;8.00;6.75;;;29.12;97836.45;;;;119432;1186;25980;-67
2022/08/04 02:51:40;;;;;;;;;8.75;8.00;;;29.11;97834.44;;;;119428;1187;24736;-67
2022/08/04 02:54:08;;;;;;;;;6.75;5.75;;;29.13;97836.08;;;;119432;1187;26511;-66
2022/08/04 02:56:37;;;;;;;;;9.25;9.25;;;29.12;97836.39;;;;119433;1186;24982;-66
2022/08/04 02:59:08;;;;;;;;;8.25;8.25;;;29.10;97831.23;;;;119415;1187;25627;-66
2022/08/04 03:01:37;;;;;;;;;10.25;8.25;;;29.10;97833.97;;;;119458;1187;25036;-67
2022/08/04 03:04:24;;;;;;;;;8.25;8.25;;;29.19;97837.81;;;;119453;1187;24828;-69
2022/08/04 03:07:36;;;;;;;;;7.50;7.50;;;29.17;97840.33;;;;119453;1187;25255;-67
2022/08/04 03:10:51;;;;;;;;;7.50;7.50;;;29.18;97838.02;;;;119384;1186;25474;-67
2022/08/04 03:13:22;;;;;;;;;8.00;8.00;;;29.24;97835.23;;;;118994;1189;25265;-67
2022/08/04 03:16:22;;;;;;;;;7.25;7.25;;;29.21;97838.17;;;;119050;1190;25455;-67
2022/08/04 03:18:56;;;;;;;;;9.50;8.25;;;29.28;97842.27;;;;119347;1186;25609;-66
2022/08/04 03:21:58;;;;;;;;;7.50;7.50;;;29.23;97846.27;;;;119442;1187;25495;-67
2022/08/04 03:24:47;;;;;;;;;10.00;8.50;;;29.19;97844.98;;;;119424;1185;25288;-69
2022/08/04 03:27:36;;;;;;;;;8.50;8.00;;;29.12;97848.40;;;;119452;1186;25585;-67
2022/08/04 03:30:07;;;;;;;;;6.25;5.75;;;29.08;97845.08;;;;119444;1186;25315;-67
2022/08/04 03:32:59;;;;;;;;;6.75;6.75;;;29.04;97842.83;;;;119451;1187;25004;-67
2022/08/04 03:35:51;;;;;;;;;7.75;7.75;;;29.04;97842.84;;;;119440;1186;25311;-67
2022/08/04 03:38:22;;;;;;;;;8.50;8.50;;;29.03;97846.20;;;;119401;1187;25467;-69
2022/08/04 03:40:58;;;;;;;;;8.50;8.00;;;28.98;97849.07;;;;119440;1187;25704;-68
2022/08/04 03:43:47;;;;;;;;;9.25;8.25;;;28.98;97847.19;;;;119457;1187;25390;-67
2022/08/04 03:46:31;;;;;;;;;8.50;7.00;;;29.04;97854.35;;;;119460;1186;25253;-67
2022/08/04 03:49:37;;;;;;;;;7.50;7.50;;;29.02;97859.17;;;;119445;1186;25229;-68
2022/08/04 03:55:51;;;;;;;;;9.00;8.25;;;29.08;97860.58;;;;119429;1186;24906;-68
2022/08/04 03:58:21;;;;;;;;;8.25;7.75;;;29.07;97861.08;;;;119411;1186;25465;-72
2022/08/04 04:01:12;;;;;;;;;8.25;7.25;;;29.05;97862.75;;;;119389;1186;24764;-70
2022/08/04 04:03:53;;;;;;;;;9.00;7.33;;;29.05;97865.55;;;;119411;1186;25590;-70
2022/08/04 04:07:04;;;;;;;;;10.50;9.00;;;29.05;97867.88;;;;119457;1186;25564;-70
2022/08/04 04:09:49;;;;;;;;;10.75;8.50;;;29.08;97862.53;;;;119391;1187;25581;-70
2022/08/04 04:12:59;;;;;;;;;8.00;8.00;;;29.13;97864.80;;;;119425;1186;25798;-71
2022/08/04 04:15:44;;;;;;;;;9.25;7.50;;;29.12;97864.45;;;;119417;1187;26252;-72
2022/08/04 04:18:54;;;;;;;;;7.75;7.75;;;29.08;97864.42;;;;119465;1185;25912;-71
2022/08/04 04:21:40;;;;;;;;;9.00;9.00;;;29.33;97869.09;;;;119462;1186;25305;-71
2022/08/04 04:25:01;;;;;;;;;11.25;10.25;;;29.41;97867.02;;;;119479;1186;25584;-72
2022/08/04 04:27:47;;;;;;;;;10.25;8.25;;;29.64;97868.37;;;;119055;1189;25966;-72
2022/08/04 04:30:18;;;;;;;;;11.75;9.00;;;29.66;97876.57;;;;119127;1190;25251;-70
2022/08/04 04:33:13;;;;;;;;;8.50;7.25;;;29.64;97874.73;;;;119327;1186;25218;-70
2022/08/04 04:36:00;;;;;;;;;13.25;11.50;;;29.50;97875.56;;;;119428;1186;25392;-70
2022/08/04 04:38:49;;;;;;;;;10.00;7.75;;;29.36;97874.98;;;;119396;1186;24790;-68
2022/08/04 04:41:29;;;;;;;;;22.25;16.00;;;29.35;97870.84;;;;119414;1186;25138;-71
2022/08/04 04:44:08;;;;;;;;;19.75;15.50;;;29.30;97872.10;;;;119426;1186;25591;-71
2022/08/04 04:47:04;;;;;;;;;24.00;17.25;;;29.31;97871.73;;;;119378;1186;25042;-68
2022/08/04 04:49:50;;;;;;;;;25.50;17.50;;;29.28;97875.36;;;;119408;1185;25433;-67
2022/08/04 04:52:27;;;;;;;;;22.50;15.00;;;29.25;97874.79;;;;119305;1187;25769;-66
2022/08/04 04:54:54;;;;;;;;;20.25;16.50;;;29.27;97873.33;;;;119404;1186;24881;-68
2022/08/04 04:57:24;;;;;;;;;21.25;15.25;;;29.25;97872.93;;;;119395;1186;25208;-67
2022/08/04 05:00:13;;;;;;;;;19.75;15.25;;;29.36;97873.23;;;;119355;1186;25250;-69
2022/08/04 05:02:58;;;;;;;;;18.75;17.25;;;29.42;97874.08;;;;119381;1186;25250;-68
2022/08/04 05:05:38;;;;;;;;;20.67;14.00;;;29.43;97876.16;;;;119437;1186;25053;-69
2022/08/04 05:08:41;;;;;;;;;23.75;15.75;;;29.50;97877.73;;;;119419;1186;25411;-71
2022/08/04 05:11:45;;;;;;;;;24.67;16.33;;;29.60;97880.60;;;;119266;1186;24882;-70
2022/08/04 05:14:22;;;;;;;;;17.75;13.75;;;29.55;97883.00;;;;119441;1185;25209;-67
2022/08/04 05:17:16;;;;;;;;;25.75;17.50;;;29.53;97883.63;;;;119414;1186;25070;-69
2022/08/04 05:19:44;;;;;;;;;19.50;12.25;;;29.53;97882.86;;;;119299;1186;26219;-67
2022/08/04 05:22:21;;;;;;;;;23.25;13.25;;;29.48;97883.97;;;;119412;1186;26089;-67
2022/08/04 05:24:57;;;;;;;;;18.00;15.75;;;29.47;97882.73;;;;119414;1186;25141;-69
2022/08/04 05:27:49;;;;;;;;;18.25;15.25;;;29.48;97886.81;;;;119438;1186;25300;-67
2022/08/04 05:30:17;;;;;;;;;19.00;13.25;;;29.49;97886.73;;;;119430;1186;24908;-66
2022/08/04 05:32:57;;;;;;;;;20.25;14.00;;;29.43;97887.57;;;;119270;1187;25675;-67
2022/08/04 05:35:32;;;;;;;;;18.50;11.25;;;29.43;97889.00;;;;119444;1187;25417;-67
2022/08/04 05:38:24;;;;;;;;;17.50;14.75;;;29.54;97891.45;;;;119398;1186;25303;-67
2022/08/04 05:40:51;;;;;;;;;20.50;11.75;;;29.50;97891.85;;;;119356;1186;24869;-67
2022/08/04 05:43:22;;;;;;;;;17.25;13.25;;;29.50;97892.02;;;;119140;1188;25870;-67
2022/08/04 05:45:51;;;;;;;;;14.00;12.00;;;29.42;97891.73;;;;119436;1187;25520;-67
2022/08/04 05:48:19;;;;;;;;;8.75;8.75;;;29.36;97893.46;;;;119334;1186;25257;-67
2022/08/04 05:50:48;;;;;;;;;20.00;14.00;;;29.33;97895.77;;;;119415;1186;25393;-67
2022/08/04 05:53:16;;;;;;;;;18.50;12.25;;;29.29;97895.97;;;;119274;1186;25949;-67
2022/08/04 05:55:45;;;;;;;;;13.00;13.00;;;29.27;97897.76;;;;119281;1187;27172;-67
2022/08/04 05:58:29;;;;;;;;;12.75;11.50;;;29.31;97899.45;;;;119267;1186;24995;-67
2022/08/04 06:00:58;;;;;;;;;12.25;8.25;;;29.32;97898.29;;;;119403;1186;26148;-67
2022/08/04 06:03:28;;;;;;;;;11.75;10.25;;;29.30;97896.82;;;;119419;1187;25024;-69
2022/08/04 06:05:57;;;;;;;;;17.00;12.25;;;29.28;97896.23;;;;119439;1186;25386;-69
2022/08/04 06:08:25;;;;;;;;;12.25;12.25;;;29.26;97895.27;;;;119440;1186;25093;-70
2022/08/04 06:10:56;;;;;;;;;13.50;11.00;;;29.24;97897.84;;;;119425;1186;24819;-72
2022/08/04 06:13:36;;;;;;;;;13.75;13.75;;;29.16;97897.19;;;;119411;1186;25290;-72
2022/08/04 06:16:26;;;;;;;;;11.25;9.75;;;29.15;97895.80;;;;119421;1187;25114;-72
2022/08/04 06:19:04;;;;;;;;;15.00;13.75;;;29.10;97897.31;;;;119349;1186;24998;-70
2022/08/04 06:21:54;;;;;;;;;13.00;11.75;;;29.08;97894.95;;;;119436;1186;25206;-70
2022/08/04 06:24:25;;;;;;;;;14.00;9.67;;;28.95;97897.86;;;;119468;1186;24829;-72
2022/08/04 06:26:54;;;;;;;;;15.00;11.75;;;28.90;97899.25;;;;119437;1185;24786;-72
2022/08/04 06:29:30;;;;;;;;;12.00;10.50;;;28.85;97896.45;;;;119462;1186;25106;-70
2022/08/04 06:32:01;;;;;;;;;10.25;9.75;;;28.87;97894.16;;;;119449;1186;25277;-70
2022/08/04 06:35:00;;;;;;;;;15.50;12.75;;;29.05;97893.70;;;;119449;1187;25775;-71
2022/08/04 06:37:29;;;;;;;;;16.00;14.25;;;29.03;97888.20;;;;119430;1186;26427;-72
2022/08/04 06:40:18;;;;;;;;;14.25;10.75;;;29.02;97885.15;;;;119436;1186;25675;-71
2022/08/04 06:43:02;;;;;;;;;16.00;15.50;;;29.00;97883.39;;;;119429;1187;25598;-73
2022/08/04 06:45:33;;;;;;;;;21.25;15.25;;;28.95;97883.39;;;;119458;1186;25100;-72
2022/08/04 06:48:04;;;;;;;;;19.50;15.00;;;28.88;97883.42;;;;119451;1187;25109;-72
2022/08/04 06:50:36;;;;;;;;;17.75;15.50;;;28.81;97882.14;;;;119471;1186;25196;-72
2022/08/04 06:53:25;;;;;;;;;17.50;15.25;;;28.81;97881.13;;;;119437;1186;25576;-71
2022/08/04 06:55:55;;;;;;;;;18.25;17.75;;;28.77;97879.67;;;;119462;1186;25591;-72
2022/08/04 06:58:24;;;;;;;;;15.00;12.25;;;28.74;97877.52;;;;119435;1186;26087;-73
2022/08/04 07:00:53;;;;;;;;;17.67;14.67;;;28.68;97876.08;;;;119304;1187;24772;-72
2022/08/04 07:03:21;;;;;;;;;10.50;10.50;;;28.66;97874.36;;;;119447;1186;24991;-71
2022/08/04 07:05:50;;;;;;;;;18.75;15.75;;;28.61;97872.45;;;;119441;1187;25113;-74
2022/08/04 07:08:20;;;;;;;;;17.75;16.00;;;28.62;97871.31;;;;119456;1186;25478;-72
2022/08/04 07:10:48;;;;;;;;;13.25;12.75;;;28.64;97872.65;;;;119467;1187;26036;-72
2022/08/04 07:13:17;;;;;;;;;18.75;16.25;;;28.63;97874.02;;;;119434;1186;24723;-72
2022/08/04 07:15:46;;;;;;;;;18.50;18.50;;;28.62;97870.63;;;;119413;1187;25455;-70
2022/08/04 07:18:15;;;;;;;;;27.25;22.00;;;28.65;97871.45;;;;119475;1186;25140;-69
2022/08/04 07:20:44;;;;;;;;;24.75;21.25;;;28.68;97868.67;;;;119419;1187;26444;-69
2022/08/04 07:23:22;;;;;;;;;18.25;17.25;;;28.70;97867.69;;;;119403;1186;25416;-71
2022/08/04 07:25:52;;;;;;;;;14.25;13.25;;;28.78;97864.26;;;;119442;1186;25233;-70
2022/08/04 07:28:40;;;;;;;;;17.25;16.25;;;28.89;97860.96;;;;119449;1186;25243;-68
2022/08/04 07:31:12;;;;;;;;;12.50;12.00;;;28.86;97856.83;;;;119460;1187;26190;-69
2022/08/04 07:34:01;;;;;;;;;20.25;16.75;;;28.94;97854.38;;;;119437;1186;25848;-70
2022/08/04 07:36:52;;;;;;;;;15.50;13.00;;;29.03;97851.94;;;;119369;1186;25546;-70
2022/08/04 07:39:27;;;;;;;;;18.75;15.75;;;29.03;97847.20;;;;119411;1187;25092;-76
2022/08/04 07:42:00;;;;;;;;;17.25;15.50;;;29.01;97844.63;;;;119417;1186;25607;-72
2022/08/04 07:44:30;;;;;;;;;17.00;16.75;;;29.00;97842.63;;;;119327;1186;25722;-72
2022/08/04 07:47:04;;;;;;;;;11.50;11.50;;;28.99;97842.02;;;;119471;1186;25487;-71
2022/08/04 07:49:33;;;;;;;;;20.75;15.75;;;28.96;97842.36;;;;119426;1186;25008;-68
2022/08/04 07:52:21;;;;;;;;;16.00;14.50;;;29.06;97842.98;;;;119428;1186;25331;-70
2022/08/04 07:54:50;;;;;;;;;17.25;15.75;;;29.04;97843.20;;;;119445;1186;25669;-79
2022/08/04 07:57:19;;;;;;;;;17.50;17.25;;;29.05;97839.67;;;;119436;1186;25270;-69
2022/08/04 08:00:09;;;;;;;;;14.50;12.75;;;29.14;97839.70;;;;119441;1186;25097;-70
2022/08/04 08:02:37;;;;;;;;;18.50;15.00;;;29.15;97840.89;;;;119455;1186;25239;-69
2022/08/04 08:05:08;;;;;;;;;13.50;12.50;;;29.14;97839.63;;;;119414;1186;25746;-69
2022/08/04 08:07:37;;;;;;;;;16.50;14.75;;;29.15;97843.70;;;;119430;1187;25379;-68
2022/08/04 08:10:17;;;;;;;;;15.25;14.50;;;29.19;97844.98;;;;119404;1186;25691;-73
2022/08/04 08:12:46;;;;;;;;;13.25;10.00;;;29.19;97843.11;;;;119441;1186;25132;-71
2022/08/04 08:15:19;;;;;;;;;13.75;12.75;;;29.19;97838.83;;;;119458;1186;25665;-75
2022/08/04 08:17:47;;;;;;;;;17.25;12.50;;;29.17;97841.02;;;;119410;1186;25300;-75
2022/08/04 08:20:30;;;;;;;;;16.00;15.50;;;29.20;97836.33;;;;119435;1187;25304;-72
2022/08/04 08:23:00;;;;;;;;;18.00;14.50;;;29.21;97834.23;;;;119407;1186;24755;-71
2022/08/04 08:25:32;;;;;;;;;16.25;15.25;;;29.20;97833.69;;;;119356;1186;25566;-71
2022/08/04 08:28:02;;;;;;;;;16.25;13.75;;;29.23;97830.25;;;;119408;1187;25658;-74
2022/08/04 08:30:32;;;;;;;;;9.25;9.25;;;29.24;97833.92;;;;119444;1186;25253;-74
2022/08/04 08:33:02;;;;;;;;;15.50;15.50;;;29.23;97832.51;;;;119472;1186;25198;-73
2022/08/04 08:35:47;;;;;;;;;14.00;11.00;;;29.25;97830.98;;;;119446;1186;25650;-74
2022/08/04 08:38:29;;;;;;;;;16.50;13.00;;;29.31;97828.25;;;;119418;1186;25495;-74
2022/08/04 08:41:15;;;;;;;;;14.00;14.00;;;29.33;97828.66;;;;119417;1186;25331;-72
2022/08/04 08:44:01;;;;;;;;;18.75;15.75;;;29.37;97829.75;;;;119411;1186;26446;-72
2022/08/04 08:46:37;;;;;;;;;14.25;13.25;;;29.39;97825.02;;;;119416;1186;24920;-74
2022/08/04 08:49:43;;;;;;;;;15.25;14.25;;;29.40;97826.94;;;;119436;1186;24808;-72
2022/08/04 08:53:18;;;;;;;;;12.75;12.50;;;29.48;97829.02;;;;119428;1186;25180;-71
2022/08/04 08:56:11;;;;;;;;;13.50;10.50;;;29.55;97821.10;;;;119300;1186;25275;-71
2022/08/04 08:59:11;;;;;;;;;16.50;15.50;;;29.53;97826.48;;;;119411;1186;24744;-70
2022/08/04 09:01:57;;;;;;;;;11.50;11.00;;;29.56;97824.13;;;;119258;1186;25986;-70
2022/08/04 09:04:46;;;;;;;;;13.75;13.00;;;29.54;97825.84;;;;119367;1186;25243;-73
2022/08/04 09:07:44;;;;;;;;;16.25;13.75;;;29.50;97823.70;;;;119440;1186;25027;-70
2022/08/04 09:10:41;;;;;;;;;11.00;10.25;;;29.49;97820.73;;;;119432;1185;25740;-70
2022/08/04 09:13:26;;;;;;;;;9.50;8.75;;;29.56;97816.05;;;;119412;1186;25829;-75
2022/08/04 09:16:31;;;;;;;;;14.50;11.75;;;29.61;97813.86;;;;119450;1186;25663;-64
2022/08/04 09:19:15;;;;;;;;;14.50;14.25;;;29.61;97815.41;;;;119463;1186;25345;-78
2022/08/04 09:22:19;;;;;;;;;14.50;14.50;;;29.64;97811.03;;;;119417;1186;25671;-76
2022/08/04 09:24:57;;;;;;;;;15.25;13.00;;;29.67;97811.35;;;;119424;1186;25380;-80
2022/08/04 09:27:49;;;;;;;;;16.50;12.25;;;29.67;97816.74;;;;119409;1186;25881;-65
2022/08/04 09:30:19;;;;;;;;;15.75;14.75;;;29.45;97814.20;;;;119442;1186;25655;-79
2022/08/04 09:33:00;;;;;;;;;11.00;8.50;;;29.60;97812.48;;;;119317;1186;25270;-70
2022/08/04 09:35:40;;;;;;;;;10.25;10.25;;;29.58;97815.02;;;;119420;1186;24984;-70
2022/08/04 09:38:29;;;;;;;;;12.75;11.25;;;29.49;97815.79;;;;119412;1186;25588;-75
2022/08/04 09:41:29;;;;;;;;;11.50;10.25;;;29.47;97820.38;;;;119431;1187;25245;-69
2022/08/04 09:44:25;;;;;;;;;13.25;13.00;;;29.63;97814.55;;;;119403;1186;25673;-67
2022/08/04 09:47:30;;;;;;;;;12.75;12.75;;;29.79;97816.02;;;;119400;1186;25852;-63
2022/08/04 09:50:25;;;;;;;;;10.00;8.25;;;29.79;97816.61;;;;119400;1186;25951;-67
2022/08/04 09:53:08;;;;;;;;;13.25;11.00;;;29.75;97815.56;;;;119394;1186;24882;-62
2022/08/04 09:55:39;;;;;;;;;11.75;11.75;;;29.69;97814.80;;;;119374;1187;25619;-65
2022/08/04 09:58:49;;;;;;;;;10.25;10.25;;;29.69;97810.37;;;;119446;1186;25154;-63
2022/08/04 10:01:19;;;;;;;;;13.75;12.25;;;29.73;97804.27;;;;119432;1187;25279;-66
2022/08/04 10:04:06;;;;;;;;;15.50;15.50;;;29.70;97797.94;;;;119414;1186;26475;-67
2022/08/04 10:07:06;;;;;;;;;19.25;15.50;;;29.70;97799.61;;;;119412;1185;25252;-70
2022/08/04 10:09:46;;;;;;;;;15.50;15.50;;;29.77;97800.56;;;;119449;1186;26328;-63
2022/08/04 10:12:28;;;;;;;;;19.50;17.50;;;29.76;97797.59;;;;119436;1186;26097;-71
2022/08/04 10:15:09;;;;;;;;;19.50;17.50;;;29.73;97794.63;;;;119452;1186;25470;-71
2022/08/04 10:17:44;;;;;;;;;22.00;18.75;;;29.73;97793.41;;;;119464;1186;25011;-68
2022/08/04 10:20:22;;;;;;;;;20.25;20.00;;;29.77;97789.09;;;;119450;1186;25343;-72
2022/08/04 10:23:09;;;;;;;;;23.75;21.50;;;29.85;97789.58;;;;119448;1186;25267;-74
2022/08/04 10:26:03;;;;;;;;;20.75;19.25;;;29.85;97786.09;;;;119436;1187;26194;-68
2022/08/04 10:28:42;;;;;;;;;19.00;16.75;;;29.83;97784.55;;;;119437;1186;25048;-67
2022/08/04 10:31:17;;;;;;;;;19.25;19.00;;;29.81;97780.77;;;;119444;1187;24903;-66
2022/08/04 10:34:21;;;;;;;;;19.33;17.33;;;29.84;97781.30;;;;119484;1186;25267;-68
2022/08/04 10:37:10;;;;;;;;;24.00;19.00;;;29.93;97778.97;;;;119442;1185;25014;-73
2022/08/04 10:40:38;;;;;;;;;24.00;20.33;;;29.93;97777.69;;;;119440;1187;25152;-73
2022/08/04 10:43:12;;;;;;;;;19.75;18.00;;;29.96;97773.81;;;;119457;1187;24784;-71
2022/08/04 10:46:17;;;;;;;;;24.50;19.25;;;30.00;97768.78;;;;119457;1186;25374;-71
2022/08/04 10:48:58;;;;;;;;;19.00;15.25;;;30.08;97773.04;;;;119339;1186;25402;-71
2022/08/04 10:51:46;;;;;;;;;15.75;15.25;;;30.04;97770.84;;;;119434;1186;25275;-73
2022/08/04 10:54:32;;;;;;;;;16.25;16.25;;;30.00;97768.02;;;;119455;1187;25364;-70
2022/08/04 10:57:06;;;;;;;;;26.25;22.25;;;29.97;97765.20;;;;119458;1186;25385;-69
2022/08/04 11:00:06;;;;;;;;;22.25;21.25;;;29.94;97761.90;;;;119438;1187;24896;-69
2022/08/04 11:03:05;;;;;;;;;24.25;19.50;;;30.04;97753.63;;;;119299;1187;25146;-67
2022/08/04 11:05:45;;;;;;;;;25.25;21.75;;;30.04;97752.98;;;;119386;1185;24937;-67
2022/08/04 11:08:44;;;;;;;;;24.25;19.75;;;30.01;97752.15;;;;119395;1186;25699;-67
2022/08/04 11:11:34;;;;;;;;;23.25;20.25;;;30.10;97750.47;;;;119382;1186;25572;-67
2022/08/04 11:14:28;;;;;;;;;34.25;27.50;;;30.22;97749.95;;;;119442;1186;25983;-66
2022/08/04 11:17:14;;;;;;;;;24.33;22.33;;;30.16;97748.46;;;;119453;1186;25404;-68
2022/08/04 11:19:55;;;;;;;;;18.75;18.75;;;30.14;97741.25;;;;119453;1186;25802;-67
2022/08/04 11:22:57;;;;;;;;;38.50;31.00;;;30.18;97742.62;;;;119418;1186;26193;-70
2022/08/04 11:25:32;;;;;;;;;39.50;32.50;;;30.18;97743.17;;;;119406;1186;24993;-69
2022/08/04 11:28:17;;;;;;;;;34.75;30.00;;;30.15;97746.39;;;;119419;1187;25080;-68
2022/08/04 11:31:04;;;;;;;;;56.67;40.33;;;30.18;97744.92;;;;119427;1186;24826;-68
2022/08/04 11:33:51;;;;;;;;;57.00;37.00;;;30.17;97745.27;;;;119453;1186;26259;-67
2022/08/04 11:36:21;;;;;;;;;36.00;30.33;;;30.15;97748.42;;;;119439;1186;26383;-68
2022/08/04 11:38:56;;;;;;;;;44.25;32.50;;;30.11;97745.80;;;;119453;1186;25153;-69
2022/08/04 11:41:53;;;;;;;;;41.00;29.50;;;30.10;97746.63;;;;119463;1186;25546;-68
2022/08/04 11:44:47;;;;;;;;;40.00;29.00;;;30.15;97744.33;;;;119462;1187;24782;-67
2022/08/04 11:47:53;;;;;;;;;47.00;35.00;;;30.21;97741.73;;;;119268;1186;25062;-68
2022/08/04 11:50:40;;;;;;;;;33.00;28.50;;;30.35;97740.69;;;;119436;1187;25108;-67
2022/08/04 11:53:11;;;;;;;;;34.75;31.25;;;30.33;97739.61;;;;119437;1186;25206;-67
2022/08/04 11:55:39;;;;;;;;;34.00;28.25;;;30.23;97738.47;;;;119448;1187;25964;-67
2022/08/04 11:58:27;;;;;;;;;35.25;28.00;;;30.27;97740.50;;;;119441;1185;25025;-67
2022/08/04 12:01:23;;;;;;;;;39.00;28.33;;;30.25;97737.38;;;;119436;1186;26464;-67
2022/08/04 12:04:15;;;;;;;;;39.00;30.00;;;30.24;97738.81;;;;119447;1186;25161;-68
2022/08/04 12:07:06;;;;;;;;;33.50;30.25;;;30.21;97735.10;;;;119427;1186;25316;-68
2022/08/04 12:10:31;;;;;;;;;43.67;30.00;;;30.27;97733.18;;;;119445;1186;25667;-68
2022/08/04 12:13:21;;;;;;;;;33.33;25.00;;;30.31;97733.65;;;;119468;1186;26299;-67
2022/08/04 12:16:04;;;;;;;;;34.50;28.25;;;30.28;97728.05;;;;119443;1186;25332;-67
2022/08/04 12:18:41;;;;;;;;;28.67;25.00;;;30.29;97725.38;;;;119453;1186;25028;-68
2022/08/04 12:21:28;;;;;;;;;33.00;27.75;;;30.27;97721.39;;;;119430;1187;25095;-68
2022/08/04 12:24:01;;;;;;;;;32.25;22.25;;;30.32;97719.86;;;;119438;1186;25038;-67
2022/08/04 12:26:37;;;;;;;;;29.50;25.50;;;30.30;97718.63;;;;119394;1185;25360;-68
2022/08/04 12:29:06;;;;;;;;;27.00;22.25;;;30.28;97717.98;;;;119308;1187;25155;-68
2022/08/04 12:31:56;;;;;;;;;35.25;25.75;;;30.27;97718.02;;;;119427;1185;25850;-68
2022/08/04 12:34:31;;;;;;;;;27.50;23.50;;;30.29;97716.11;;;;119388;1185;24869;-67
2022/08/04 12:37:06;;;;;;;;;28.75;24.25;;;30.30;97711.13;;;;119275;1185;24906;-68
2022/08/04 12:39:37;;;;;;;;;31.00;21.25;;;30.31;97713.83;;;;119367;1186;24849;-67
2022/08/04 12:42:45;;;;;;;;;23.75;22.50;;;30.39;97708.91;;;;119422;1186;25759;-68
2022/08/04 12:45:27;;;;;;;;;29.25;27.50;;;30.46;97711.67;;;;119393;1185;26212;-68
2022/08/04 12:47:59;;;;;;;;;27.75;21.00;;;30.42;97708.48;;;;119290;1187;25240;-66
2022/08/04 12:50:28;;;;;;;;;28.00;23.00;;;30.38;97707.34;;;;119404;1186;25262;-68
2022/08/04 12:52:57;;;;;;;;;24.00;21.25;;;30.37;97699.29;;;;119375;1186;25696;-67
2022/08/04 12:55:32;;;;;;;;;26.50;21.25;;;30.38;97694.36;;;;119397;1186;25520;-68
2022/08/04 12:58:02;;;;;;;;;28.75;25.75;;;30.40;97696.08;;;;119423;1187;25444;-68
2022/08/04 13:00:35;;;;;;;;;21.50;18.75;;;30.40;97690.19;;;;119451;1186;24963;-68
2022/08/04 13:03:11;;;;;;;;;25.00;20.75;;;30.45;97691.05;;;;119452;1187;24867;-68
2022/08/04 13:05:40;;;;;;;;;23.00;22.00;;;30.46;97696.65;;;;119331;1187;25084;-69
2022/08/04 13:08:12;;;;;;;;;23.00;20.25;;;30.46;97691.45;;;;119342;1187;25169;-72